createdAt,value
2022-10-19T00:00:28.217Z,8.13
2022-10-19T00:01:56.267Z,10.07
2022-10-19T00:03:06.428Z,9.05
2022-10-19T00:04:47.459Z,8.00
2022-10-19T00:07:25.880Z,8.05
2022-10-19T00:08:05.524Z,7.53
2022-10-19T00:14:06.610Z,8.18
2022-10-19T00:15:15.791Z,10.00
2022-10-19T00:16:27.299Z,9.70
2022-10-19T00:17:55.983Z,9.52
2022-10-19T00:21:05.924Z,8.18
2022-10-19T00:22:14.551Z,7.70
2022-10-19T00:23:18.200Z,7.35
2022-10-19T00:24:26.383Z,8.82
2022-10-19T00:25:35.131Z,7.70
2022-10-19T00:26:57.085Z,9.10
2022-10-19T00:28:06.483Z,9.00
2022-10-19T00:29:14.601Z,8.93
2022-10-19T00:30:17.104Z,9.50
2022-10-19T00:31:45.882Z,9.85
2022-10-19T00:33:26.098Z,8.07
2022-10-19T00:34:46.601Z,7.63
2022-10-19T00:36:05.286Z,7.38
2022-10-19T00:37:28.197Z,8.05
2022-10-19T00:42:54.863Z,8.15
2022-10-19T00:44:56.650Z,8.30
2022-10-19T00:46:18.082Z,8.52
2022-10-19T00:47:38.459Z,7.20
2022-10-19T00:48:56.524Z,8.50
2022-10-19T00:53:28.541Z,7.80
2022-10-19T00:54:38.013Z,7.50
2022-10-19T00:55:45.348Z,7.75
2022-10-19T00:56:58.616Z,6.90
2022-10-19T00:58:24.995Z,7.57
2022-10-19T00:59:34.742Z,6.75
2022-10-19T01:00:38.658Z,8.05
2022-10-19T01:01:56.377Z,8.40
2022-10-19T01:03:26.923Z,7.40
2022-10-19T01:05:35.355Z,6.97
2022-10-19T01:06:44.370Z,9.30
2022-10-19T01:07:55.467Z,8.27
2022-10-19T01:09:25.397Z,9.63
2022-10-19T01:11:05.832Z,7.40
2022-10-19T01:12:45.426Z,8.63
2022-10-19T01:14:16.424Z,9.68
2022-10-19T01:15:47.168Z,7.70
2022-10-19T01:17:17.187Z,9.02
2022-10-19T01:18:46.186Z,7.53
2022-10-19T01:20:15.787Z,8.40
2022-10-19T01:21:47.530Z,9.05
2022-10-19T01:23:16.035Z,8.30
2022-10-19T01:25:05.035Z,7.95
2022-10-19T01:26:25.128Z,6.65
2022-10-19T01:28:15.290Z,7.60
2022-10-19T01:29:43.076Z,7.97
2022-10-19T01:31:02.790Z,8.77
2022-10-19T01:32:15.933Z,7.28
2022-10-19T01:35:45.682Z,9.00
2022-10-19T01:37:19.032Z,9.32
2022-10-19T01:39:04.747Z,8.75
2022-10-19T01:42:38.726Z,8.60
2022-10-19T01:44:19.044Z,7.10
2022-10-19T01:45:49.167Z,9.18
2022-10-19T01:49:47.561Z,8.00
2022-10-19T01:51:17.005Z,7.47
2022-10-19T01:52:40.689Z,8.70
2022-10-19T01:54:06.417Z,8.00
2022-10-19T01:55:19.167Z,8.63
2022-10-19T01:59:36.311Z,8.88
2022-10-19T02:00:47.046Z,8.13
2022-10-19T02:02:06.594Z,8.95
2022-10-19T02:04:16.768Z,9.70
2022-10-19T02:05:38.481Z,8.55
2022-10-19T02:10:47.661Z,9.38
2022-10-19T02:12:28.276Z,9.85
2022-10-19T02:13:38.178Z,10.18
2022-10-19T02:14:55.794Z,11.82
2022-10-19T02:16:15.823Z,10.30
2022-10-19T02:17:56.892Z,10.38
2022-10-19T02:19:04.641Z,11.20
2022-10-19T02:20:08.818Z,11.88
2022-10-19T02:21:56.915Z,11.38
2022-10-19T02:23:27.793Z,12.13
2022-10-19T02:24:35.448Z,12.82
2022-10-19T02:25:37.767Z,13.90
2022-10-19T02:27:05.050Z,14.80
2022-10-19T02:28:07.551Z,13.15
2022-10-19T02:29:15.375Z,11.73
2022-10-19T02:30:28.555Z,11.30
2022-10-19T02:31:55.014Z,13.32
2022-10-19T02:32:57.489Z,12.35
2022-10-19T02:34:05.773Z,13.00
2022-10-19T02:35:13.173Z,11.80
2022-10-19T02:43:36.962Z,12.65
2022-10-19T02:45:06.703Z,13.20
2022-10-19T02:46:36.962Z,15.73
2022-10-19T02:47:56.851Z,15.30
2022-10-19T02:49:16.543Z,14.27
2022-10-19T02:50:20.089Z,15.27
2022-10-19T02:51:36.005Z,17.55
2022-10-19T02:52:45.883Z,16.83
2022-10-19T02:55:37.158Z,17.60
2022-10-19T02:56:45.680Z,16.02
2022-10-19T02:57:49.063Z,15.82
2022-10-19T02:59:17.625Z,16.70
2022-10-19T03:00:26.337Z,19.13
2022-10-19T03:01:28.788Z,18.38
2022-10-19T03:02:34.731Z,19.67
2022-10-19T03:03:37.112Z,17.85
2022-10-19T03:04:42.791Z,17.60
2022-10-19T03:05:45.111Z,19.25
2022-10-19T03:06:48.458Z,18.35
2022-10-19T03:10:07.597Z,19.40
2022-10-19T03:11:44.993Z,17.67
2022-10-19T03:12:47.267Z,22.30
2022-10-19T03:14:37.679Z,21.95
2022-10-19T03:15:45.471Z,22.45
2022-10-19T03:16:48.828Z,20.73
2022-10-19T03:18:26.313Z,27.52
2022-10-19T03:19:28.642Z,25.52
2022-10-19T03:21:07.681Z,21.80
2022-10-19T03:22:17.692Z,20.85
2022-10-19T03:23:27.351Z,22.40
2022-10-19T03:24:37.498Z,19.17
2022-10-19T03:25:57.563Z,22.17
2022-10-19T03:26:59.844Z,24.50
2022-10-19T03:28:07.791Z,21.73
2022-10-19T03:29:14.707Z,23.05
2022-10-19T03:30:18.102Z,26.27
2022-10-19T03:31:46.954Z,26.33
2022-10-19T03:32:53.810Z,28.70
2022-10-19T03:33:56.346Z,30.80
2022-10-19T03:35:03.342Z,27.50
2022-10-19T03:36:36.214Z,25.92
2022-10-19T03:37:46.257Z,33.72
2022-10-19T03:40:08.536Z,25.23
2022-10-19T03:42:57.270Z,28.75
2022-10-19T03:45:59.016Z,30.45
2022-10-19T03:47:07.475Z,30.45
2022-10-19T03:48:17.588Z,30.98
2022-10-19T03:49:36.839Z,26.40
2022-10-19T03:51:17.482Z,22.15
2022-10-19T03:52:38.522Z,25.00
2022-10-19T03:54:17.341Z,25.30
2022-10-19T03:55:25.756Z,25.23
2022-10-19T03:58:26.441Z,24.20
2022-10-19T03:59:29.753Z,24.88
2022-10-19T04:00:32.320Z,24.98
2022-10-19T04:01:38.813Z,24.38
2022-10-19T04:03:17.471Z,25.08
2022-10-19T04:04:35.067Z,24.98
2022-10-19T04:05:48.163Z,25.90
2022-10-19T04:07:36.190Z,22.08
2022-10-19T04:08:38.753Z,25.02
2022-10-19T04:11:47.295Z,26.10
2022-10-19T04:12:58.615Z,23.90
2022-10-19T04:14:32.572Z,23.00
2022-10-19T04:15:38.047Z,21.02
2022-10-19T04:16:57.585Z,21.85
2022-10-19T04:18:07.850Z,23.75
2022-10-19T04:20:35.173Z,23.60
2022-10-19T04:21:48.248Z,22.33
2022-10-19T04:22:57.720Z,22.17
2022-10-19T04:25:27.886Z,24.27
2022-10-19T04:30:07.041Z,26.58
2022-10-19T04:31:19.952Z,25.65
2022-10-19T04:33:06.980Z,23.73
2022-10-19T04:36:24.277Z,21.27
2022-10-19T04:39:47.245Z,19.17
2022-10-19T04:41:07.983Z,18.08
2022-10-19T04:42:17.233Z,23.15
2022-10-19T04:43:27.523Z,21.95
2022-10-19T04:44:45.362Z,25.23
2022-10-19T04:45:55.082Z,25.08
2022-10-19T04:47:08.444Z,23.85
2022-10-19T04:48:16.756Z,25.50
2022-10-19T04:49:23.644Z,24.17
2022-10-19T04:50:26.173Z,25.13
2022-10-19T04:52:04.733Z,24.52
2022-10-19T04:53:06.964Z,21.55
2022-10-19T04:54:22.445Z,24.48
2022-10-19T04:55:26.433Z,20.58
2022-10-19T04:56:33.827Z,23.63
2022-10-19T04:57:36.634Z,23.70
2022-10-19T04:58:56.369Z,22.85
2022-10-19T05:00:10.017Z,22.27
2022-10-19T05:01:25.837Z,19.45
2022-10-19T05:02:29.083Z,18.50
2022-10-19T05:03:37.214Z,20.45
2022-10-19T05:04:48.799Z,19.75
2022-10-19T05:06:00.800Z,20.55
2022-10-19T05:07:26.318Z,20.23
2022-10-19T05:09:35.614Z,18.92
2022-10-19T05:11:26.011Z,18.60
2022-10-19T05:15:58.484Z,18.08
2022-10-19T05:17:17.231Z,16.42
2022-10-19T05:18:27.863Z,16.10
2022-10-19T05:19:37.222Z,15.32
2022-10-19T05:20:39.574Z,15.05
2022-10-19T05:21:56.610Z,17.55
2022-10-19T05:23:07.513Z,15.20
2022-10-19T05:24:25.834Z,12.98
2022-10-19T05:25:28.147Z,14.65
2022-10-19T05:27:05.394Z,15.88
2022-10-19T05:28:08.827Z,13.55
2022-10-19T05:29:32.968Z,12.50
2022-10-19T05:30:38.762Z,15.00
2022-10-19T05:31:45.300Z,14.60
2022-10-19T05:32:47.687Z,14.05
2022-10-19T05:33:51.586Z,14.68
2022-10-19T05:34:57.899Z,13.18
2022-10-19T05:36:37.738Z,15.68
2022-10-19T05:37:47.668Z,15.02
2022-10-19T05:39:08.918Z,15.90
2022-10-19T05:40:18.223Z,14.30
2022-10-19T05:42:48.009Z,13.98
2022-10-19T05:46:47.479Z,12.70
2022-10-19T05:48:15.119Z,14.50
2022-10-19T05:49:19.672Z,16.95
2022-10-19T05:50:47.194Z,13.65
2022-10-19T05:56:59.033Z,15.10
2022-10-19T05:58:07.363Z,15.52
2022-10-19T05:59:27.758Z,15.40
2022-10-19T06:00:38.645Z,16.65
2022-10-19T06:02:07.630Z,17.60
2022-10-19T06:03:09.939Z,17.23
2022-10-19T06:05:26.786Z,17.20
2022-10-19T06:08:20.178Z,18.25
2022-10-19T06:09:58.131Z,19.00
2022-10-19T06:11:22.310Z,18.92
2022-10-19T06:12:30.425Z,18.00
2022-10-19T06:16:15.379Z,18.05
2022-10-19T06:17:36.341Z,18.38
2022-10-19T06:18:45.437Z,20.45
2022-10-19T06:19:48.875Z,18.92
2022-10-19T06:21:17.529Z,19.42
2022-10-19T06:22:27.295Z,18.52
2022-10-19T06:24:47.469Z,19.13
2022-10-19T06:26:16.591Z,20.75
2022-10-19T06:27:42.013Z,18.92
2022-10-19T06:28:47.901Z,20.08
2022-10-19T06:30:25.387Z,19.98
2022-10-19T06:31:29.015Z,20.00
2022-10-19T06:32:37.112Z,18.00
2022-10-19T06:33:48.660Z,18.00
2022-10-19T06:34:56.664Z,18.52
2022-10-19T06:36:15.179Z,21.10
2022-10-19T06:37:26.274Z,21.27
2022-10-19T06:38:46.445Z,20.58
2022-10-19T06:39:57.685Z,21.02
2022-10-19T06:45:31.151Z,19.83
2022-10-19T06:46:56.629Z,18.52
2022-10-19T06:49:38.537Z,18.70
2022-10-19T06:51:17.918Z,19.25
2022-10-19T06:53:07.768Z,22.25
2022-10-19T06:54:15.555Z,20.92
2022-10-19T06:55:18.074Z,20.38
2022-10-19T06:56:36.215Z,18.67
2022-10-19T06:57:45.542Z,20.88
2022-10-19T06:59:07.427Z,23.17
2022-10-19T07:00:18.016Z,20.30
2022-10-19T07:01:24.963Z,23.23
2022-10-19T07:02:48.272Z,24.02
2022-10-19T07:04:03.497Z,24.15
2022-10-19T07:05:09.431Z,24.05
2022-10-19T07:06:18.511Z,25.40
2022-10-19T07:07:45.727Z,25.55
2022-10-19T07:08:56.281Z,25.58
2022-10-19T07:10:04.091Z,28.67
2022-10-19T07:11:27.713Z,24.42
2022-10-19T07:12:34.504Z,25.73
2022-10-19T07:14:17.755Z,27.40
2022-10-19T07:15:35.218Z,28.98
2022-10-19T07:16:38.550Z,28.73
2022-10-19T07:17:55.855Z,27.40
2022-10-19T07:19:07.597Z,26.23
2022-10-19T07:20:22.096Z,29.00
2022-10-19T07:21:27.210Z,27.02
2022-10-19T07:22:44.694Z,29.00
2022-10-19T07:24:06.519Z,30.52
2022-10-19T07:25:17.668Z,27.15
2022-10-19T07:26:36.499Z,28.65
2022-10-19T07:27:43.406Z,29.58
2022-10-19T07:29:07.995Z,28.27
2022-10-19T07:30:18.939Z,30.67
2022-10-19T07:31:34.971Z,29.55
2022-10-19T07:32:37.249Z,29.98
2022-10-19T07:33:45.167Z,29.58
2022-10-19T07:34:48.884Z,29.23
2022-10-19T07:36:45.909Z,29.88
2022-10-19T07:37:29.586Z,30.38
2022-10-19T07:38:39.419Z,28.38
2022-10-19T07:39:48.654Z,29.95
2022-10-19T07:41:17.719Z,30.38
2022-10-19T07:42:39.831Z,28.25
2022-10-19T07:43:57.984Z,30.10
2022-10-19T07:45:47.212Z,28.45
2022-10-19T07:47:06.973Z,28.35
2022-10-19T07:48:38.744Z,30.40
2022-10-19T07:49:49.786Z,32.38
2022-10-19T07:52:46.108Z,33.85
2022-10-19T07:54:27.532Z,34.88
2022-10-19T07:55:47.821Z,36.95
2022-10-19T07:56:57.368Z,35.67
2022-10-19T07:58:05.978Z,36.17
2022-10-19T08:12:13.969Z,34.43
2022-10-19T08:13:36.711Z,38.13
2022-10-19T08:14:57.471Z,33.65
2022-10-19T08:16:26.185Z,35.37
2022-10-19T08:21:28.604Z,34.22
2022-10-19T08:22:59.099Z,34.08
2022-10-19T08:24:15.320Z,33.65
2022-10-19T08:25:18.923Z,34.58
2022-10-19T08:26:58.437Z,36.40
2022-10-19T08:28:28.547Z,34.83
2022-10-19T08:29:35.614Z,36.13
2022-10-19T08:30:44.379Z,33.95
2022-10-19T08:32:25.857Z,34.88
2022-10-19T08:33:28.184Z,34.65
2022-10-19T08:34:37.827Z,32.65
2022-10-19T08:35:40.375Z,34.03
2022-10-19T08:37:40.836Z,33.22
2022-10-19T08:38:58.532Z,34.10
2022-10-19T08:40:37.083Z,34.03
2022-10-19T08:42:06.496Z,32.60
2022-10-19T08:43:38.777Z,32.22
2022-10-19T08:45:16.719Z,32.00
2022-10-19T08:46:46.932Z,31.42
2022-10-19T08:48:28.268Z,31.88
2022-10-19T08:49:38.639Z,29.98
2022-10-19T08:50:49.242Z,32.05
2022-10-19T08:52:29.571Z,30.65
2022-10-19T08:53:52.200Z,30.08
2022-10-19T08:55:06.171Z,31.58
2022-10-19T08:56:38.939Z,31.77
2022-10-19T08:58:37.622Z,30.75
2022-10-19T08:59:57.695Z,32.33
2022-10-19T09:01:13.655Z,29.48
2022-10-19T09:03:23.074Z,29.52
2022-10-19T09:05:17.149Z,29.17
2022-10-19T09:08:17.979Z,28.17
2022-10-19T09:10:58.144Z,27.33
2022-10-19T09:12:07.585Z,27.50
2022-10-19T09:15:13.696Z,26.17
2022-10-19T09:16:24.788Z,25.95
2022-10-19T09:19:35.659Z,25.48
2022-10-19T09:21:09.357Z,26.27
2022-10-19T09:22:46.301Z,24.65
2022-10-19T09:24:06.020Z,23.15
2022-10-19T09:25:37.293Z,24.30
2022-10-19T09:27:15.591Z,24.92
2022-10-19T09:28:48.811Z,26.15
2022-10-19T09:30:25.695Z,26.13
2022-10-19T09:31:56.191Z,25.40
2022-10-19T09:33:15.732Z,23.30
2022-10-19T09:34:56.505Z,22.92
2022-10-19T09:36:39.228Z,21.60
2022-10-19T09:37:58.709Z,22.15
2022-10-19T09:39:29.346Z,22.50
2022-10-19T09:40:44.857Z,20.73
2022-10-19T09:42:17.353Z,20.85
2022-10-19T09:43:28.766Z,20.33
2022-10-19T09:45:05.256Z,20.98
2022-10-19T09:46:29.117Z,21.80
2022-10-19T09:47:40.407Z,21.13
2022-10-19T09:49:07.943Z,21.25
2022-10-19T09:50:36.698Z,21.20
2022-10-19T09:51:46.849Z,20.30
2022-10-19T09:53:16.255Z,20.70
2022-10-19T09:54:46.358Z,20.52
2022-10-19T09:57:48.660Z,20.05
2022-10-19T09:59:27.988Z,19.75
2022-10-19T10:00:46.163Z,19.13
2022-10-19T10:02:07.990Z,18.15
2022-10-19T10:03:46.498Z,19.45
2022-10-19T10:04:56.439Z,21.10
2022-10-19T10:06:06.089Z,18.45
2022-10-19T10:07:15.402Z,20.10
2022-10-19T10:08:40.373Z,20.35
2022-10-19T10:10:06.663Z,20.33
2022-10-19T10:13:46.885Z,19.42
2022-10-19T10:15:06.912Z,19.98
2022-10-19T10:18:27.760Z,20.85
2022-10-19T10:20:25.834Z,19.42
2022-10-19T10:21:45.030Z,22.38
2022-10-19T10:23:47.828Z,21.50
2022-10-19T10:24:56.983Z,20.50
2022-10-19T10:27:48.693Z,21.83
2022-10-19T10:29:20.637Z,20.52
2022-10-19T10:30:34.597Z,20.85
2022-10-19T10:31:38.016Z,21.02
2022-10-19T10:33:04.617Z,20.50
2022-10-19T10:34:49.868Z,21.40
2022-10-19T10:37:51.757Z,20.52
2022-10-19T10:39:17.076Z,20.75
2022-10-19T10:40:37.049Z,21.50
2022-10-19T10:42:29.536Z,22.02
2022-10-19T10:44:29.943Z,20.85
2022-10-19T10:47:45.925Z,22.10
2022-10-19T10:49:26.528Z,22.52
2022-10-19T10:52:34.836Z,21.90
2022-10-19T10:53:39.848Z,19.85
2022-10-19T10:56:57.311Z,22.05
2022-10-19T11:00:53.333Z,21.38
2022-10-19T11:02:18.897Z,21.52
2022-10-19T11:04:17.356Z,21.83
2022-10-19T11:05:36.984Z,19.85
2022-10-19T11:07:05.826Z,19.67
2022-10-19T11:09:27.337Z,21.45
2022-10-19T11:10:50.714Z,20.45
2022-10-19T11:12:06.675Z,18.95
2022-10-19T11:13:38.298Z,20.33
2022-10-19T11:15:16.624Z,22.33
2022-10-19T11:16:46.897Z,18.38
2022-10-19T11:18:07.860Z,18.92
2022-10-19T11:19:38.375Z,19.52
2022-10-19T11:21:35.740Z,19.15
2022-10-19T11:23:04.623Z,19.00
2022-10-19T11:24:27.093Z,18.33
2022-10-19T11:25:58.007Z,17.15
2022-10-19T11:28:08.814Z,16.38
2022-10-19T11:30:05.923Z,16.85
2022-10-19T11:31:19.426Z,17.48
2022-10-19T11:32:57.255Z,15.85
2022-10-19T11:34:05.784Z,15.38
2022-10-19T11:35:39.313Z,15.73
2022-10-19T11:37:10.281Z,14.55
2022-10-19T11:38:47.044Z,14.15
2022-10-19T11:40:22.091Z,14.85
2022-10-19T11:45:16.629Z,13.88
2022-10-19T11:48:40.354Z,12.48
2022-10-19T11:50:53.884Z,13.15
2022-10-19T11:52:27.984Z,12.15
2022-10-19T11:53:43.710Z,11.13
2022-10-19T11:55:38.811Z,10.45
2022-10-19T11:57:37.123Z,10.00
2022-10-19T11:59:28.973Z,9.30
2022-10-19T12:00:40.098Z,7.97
2022-10-19T12:02:06.851Z,9.68
2022-10-19T12:03:36.225Z,8.35
2022-10-19T12:05:08.095Z,7.50
2022-10-19T12:06:20.196Z,7.53
2022-10-19T12:07:49.695Z,8.73
2022-10-19T12:09:28.346Z,7.03
2022-10-19T12:10:56.822Z,7.75
2022-10-19T12:12:38.995Z,8.02
2022-10-19T12:14:20.277Z,7.45
2022-10-19T12:15:49.754Z,7.60
2022-10-19T12:17:27.368Z,7.72
2022-10-19T12:18:46.434Z,6.38
2022-10-19T12:19:57.198Z,8.10
2022-10-19T12:21:37.179Z,6.57
2022-10-19T12:23:15.359Z,7.13
2022-10-19T12:24:28.650Z,6.38
2022-10-19T12:25:59.268Z,7.30
2022-10-19T12:27:55.387Z,7.55
2022-10-19T12:29:06.563Z,7.30
2022-10-19T12:30:19.810Z,6.50
2022-10-19T12:31:45.894Z,7.07
2022-10-19T12:33:27.310Z,7.22
2022-10-19T12:35:05.019Z,6.30
2022-10-19T12:36:46.255Z,7.07
2022-10-19T12:38:10.171Z,6.93
2022-10-19T12:39:45.741Z,7.40
2022-10-19T12:41:19.195Z,8.18
2022-10-19T12:44:06.561Z,7.35
2022-10-19T12:45:28.464Z,7.57
2022-10-19T12:48:39.290Z,10.00
2022-10-19T12:49:49.039Z,8.43
2022-10-19T12:51:27.816Z,9.23
2022-10-19T12:52:56.621Z,8.70
2022-10-19T12:54:25.382Z,10.52
2022-10-19T12:55:40.316Z,10.25
2022-10-19T12:56:58.419Z,9.82
2022-10-19T12:58:37.147Z,9.85
2022-10-19T12:59:48.004Z,10.27
2022-10-19T13:01:36.773Z,10.40
2022-10-19T13:02:48.808Z,10.90
2022-10-19T13:04:26.269Z,10.52
2022-10-19T13:05:36.136Z,10.10
2022-10-19T13:07:15.878Z,9.85
2022-10-19T13:09:34.999Z,11.23
2022-10-19T13:10:40.501Z,10.55
2022-10-19T13:12:28.874Z,10.15
2022-10-19T13:14:09.090Z,9.70
2022-10-19T13:16:29.376Z,10.50
2022-10-19T13:17:56.698Z,11.52
2022-10-19T13:19:29.045Z,11.13
2022-10-19T13:20:55.688Z,12.20
2022-10-19T13:22:28.942Z,10.95
2022-10-19T13:23:40.443Z,10.88
2022-10-19T13:32:47.264Z,10.30
2022-10-19T13:34:16.739Z,9.15
2022-10-19T13:35:46.957Z,9.65
2022-10-19T13:37:09.723Z,8.80
2022-10-19T13:38:49.719Z,7.40
2022-10-19T13:40:07.559Z,6.07
2022-10-19T13:41:35.674Z,6.22
2022-10-19T13:42:48.179Z,6.90
2022-10-19T13:44:18.279Z,6.57
2022-10-19T13:45:40.229Z,6.65
2022-10-19T13:47:14.956Z,6.53
2022-10-19T13:48:48.605Z,7.15
2022-10-19T13:50:55.905Z,7.13
2022-10-19T13:52:48.734Z,5.32
2022-10-19T13:54:20.077Z,5.60
2022-10-19T13:56:34.447Z,5.93
2022-10-19T13:58:47.724Z,5.70
2022-10-19T14:00:37.525Z,6.28
2022-10-19T14:02:18.282Z,5.90
2022-10-19T14:03:34.653Z,5.30
2022-10-19T14:04:49.416Z,5.20
2022-10-19T14:06:35.941Z,4.82
2022-10-19T14:07:59.147Z,4.80
2022-10-19T14:09:58.618Z,5.13
2022-10-19T14:11:39.495Z,4.60
2022-10-19T14:13:18.147Z,4.82
2022-10-19T14:14:48.193Z,4.88
2022-10-19T14:17:49.207Z,4.75
2022-10-19T14:18:56.474Z,5.38
2022-10-19T14:20:00.738Z,5.05
2022-10-19T14:21:43.656Z,6.07
2022-10-19T14:22:50.149Z,5.22
2022-10-19T14:24:46.175Z,5.85
2022-10-19T14:25:57.239Z,5.20
2022-10-19T14:27:08.879Z,5.95
2022-10-19T14:28:17.602Z,5.20
2022-10-19T14:29:29.694Z,4.88
2022-10-19T14:30:44.697Z,5.55
2022-10-19T14:31:49.724Z,5.00
2022-10-19T14:33:01.155Z,5.32
2022-10-19T14:34:09.196Z,5.63
2022-10-19T14:35:29.282Z,5.35
2022-10-19T14:36:38.501Z,4.85
2022-10-19T14:37:48.226Z,6.50
2022-10-19T14:38:57.662Z,5.72
2022-10-19T14:40:28.698Z,5.65
2022-10-19T14:41:48.310Z,5.40
2022-10-19T14:43:00.609Z,5.32
2022-10-19T14:44:46.751Z,5.68
2022-10-19T14:46:18.157Z,5.75
2022-10-19T14:48:59.186Z,5.82
2022-10-19T14:50:56.976Z,5.63
2022-10-19T14:52:09.977Z,6.22
2022-10-19T14:53:45.875Z,5.30
2022-10-19T14:54:58.607Z,5.32
2022-10-19T14:56:26.423Z,6.30
2022-10-19T14:57:47.648Z,6.38
2022-10-19T14:59:06.795Z,5.85
2022-10-19T15:00:17.761Z,6.50
2022-10-19T15:01:25.594Z,5.90
2022-10-19T15:02:38.119Z,5.60
2022-10-19T15:04:05.739Z,6.18
2022-10-19T15:05:47.006Z,6.05
2022-10-19T15:06:57.920Z,5.82
2022-10-19T15:08:20.482Z,6.00
2022-10-19T15:09:47.371Z,5.90
2022-10-19T15:13:18.068Z,5.97
2022-10-19T15:14:35.785Z,5.78
2022-10-19T15:15:47.880Z,6.20
2022-10-19T15:18:49.864Z,6.38
2022-10-19T15:20:49.630Z,6.70
2022-10-19T15:22:28.506Z,6.88
2022-10-19T15:24:05.433Z,8.77
2022-10-19T15:25:30.079Z,9.10
2022-10-19T15:27:08.668Z,7.75
2022-10-19T15:28:48.929Z,7.70
2022-10-19T15:30:06.433Z,7.07
2022-10-19T15:31:26.099Z,7.60
2022-10-19T15:32:37.251Z,7.55
2022-10-19T15:34:07.130Z,6.78
2022-10-19T15:35:18.692Z,6.50
2022-10-19T15:36:46.078Z,6.80
2022-10-19T15:37:54.148Z,6.60
2022-10-19T15:39:24.532Z,6.55
2022-10-19T15:40:48.642Z,6.55
2022-10-19T15:42:58.204Z,6.82
2022-10-19T15:44:06.967Z,6.00
2022-10-19T15:45:48.563Z,6.65
2022-10-19T15:49:07.435Z,6.20
2022-10-19T15:50:38.306Z,5.63
2022-10-19T15:52:43.856Z,6.40
2022-10-19T15:56:06.042Z,5.55
2022-10-19T15:57:59.576Z,6.40
2022-10-19T15:59:16.712Z,6.40
2022-10-19T16:00:20.377Z,6.95
2022-10-19T16:01:28.912Z,6.35
2022-10-19T16:03:10.079Z,6.53
2022-10-19T16:04:14.590Z,5.90
2022-10-19T16:05:16.974Z,6.60
2022-10-19T16:06:39.879Z,6.22
2022-10-19T16:07:56.718Z,6.05
2022-10-19T16:10:30.412Z,5.82
2022-10-19T16:13:17.491Z,5.63
2022-10-19T16:14:37.431Z,6.85
2022-10-19T16:19:47.783Z,6.50
2022-10-19T16:20:50.152Z,7.32
2022-10-19T16:23:58.848Z,6.82
2022-10-19T16:25:09.213Z,6.88
2022-10-19T16:26:38.714Z,6.40
2022-10-19T16:28:45.994Z,7.03
2022-10-19T16:31:31.940Z,7.22
2022-10-19T16:33:55.817Z,7.97
2022-10-19T16:34:58.366Z,7.75
2022-10-19T16:36:56.020Z,6.68
2022-10-19T16:38:53.080Z,7.13
2022-10-19T16:40:55.486Z,7.90
2022-10-19T16:41:50.298Z,6.78
2022-10-19T16:43:46.738Z,7.30
2022-10-19T16:45:07.657Z,7.80
2022-10-19T16:46:17.487Z,7.40
2022-10-19T16:47:28.566Z,7.95
2022-10-19T16:48:49.592Z,7.35
2022-10-19T16:50:06.292Z,7.38
2022-10-19T16:51:19.935Z,7.40
2022-10-19T16:52:28.796Z,7.05
2022-10-19T16:53:46.231Z,7.72
2022-10-19T16:54:57.679Z,7.75
2022-10-19T16:56:08.603Z,7.80
2022-10-19T16:57:50.211Z,7.80
2022-10-19T16:59:26.463Z,8.07
2022-10-19T17:00:37.411Z,7.95
2022-10-19T17:01:39.986Z,6.82
2022-10-19T17:03:08.792Z,7.05
2022-10-19T17:04:14.756Z,7.60
2022-10-19T17:05:17.078Z,7.68
2022-10-19T17:06:36.034Z,7.20
2022-10-19T17:07:39.536Z,7.18
2022-10-19T17:09:41.479Z,7.30
2022-10-19T17:11:27.430Z,7.13
2022-10-19T17:14:28.736Z,9.05
2022-10-19T17:16:27.373Z,8.70
2022-10-19T17:19:37.869Z,8.57
2022-10-19T17:20:56.377Z,8.95
2022-10-19T17:22:27.888Z,9.00
2022-10-19T17:23:36.551Z,8.80
2022-10-19T17:24:46.425Z,8.77
2022-10-19T17:25:48.818Z,8.95
2022-10-19T17:27:20.217Z,8.68
2022-10-19T17:28:56.663Z,11.13
2022-10-19T17:30:17.381Z,10.60
2022-10-19T17:31:24.343Z,11.90
2022-10-19T17:32:27.982Z,12.23
2022-10-19T17:33:35.222Z,12.52
2022-10-19T17:34:38.453Z,12.07
2022-10-19T17:35:48.419Z,13.85
2022-10-19T17:38:27.342Z,14.05
2022-10-19T17:39:37.074Z,14.05
2022-10-19T17:40:39.794Z,13.00
2022-10-19T17:42:08.882Z,12.95
2022-10-19T17:43:55.957Z,12.95
2022-10-19T17:45:36.769Z,13.63
2022-10-19T17:46:49.318Z,14.10
2022-10-19T17:47:57.846Z,13.45
2022-10-19T17:49:17.605Z,13.60
2022-10-19T17:50:29.118Z,14.02
2022-10-19T17:51:39.017Z,14.07
2022-10-19T17:52:56.759Z,13.85
2022-10-19T17:54:09.460Z,12.93
2022-10-19T17:55:35.037Z,12.45
2022-10-19T17:56:54.757Z,11.65
2022-10-19T17:57:57.340Z,11.05
2022-10-19T17:59:08.751Z,11.60
2022-10-19T18:00:16.414Z,11.23
2022-10-19T18:02:18.099Z,11.00
2022-10-19T18:04:55.706Z,9.70
2022-10-19T18:05:59.691Z,9.18
2022-10-19T18:07:28.324Z,9.50
2022-10-19T18:08:34.529Z,8.68
2022-10-19T18:09:37.930Z,8.50
2022-10-19T18:10:40.254Z,8.57
2022-10-19T18:15:14.987Z,9.07
2022-10-19T18:18:57.854Z,7.90
2022-10-19T18:20:20.975Z,9.05
2022-10-19T18:21:37.538Z,7.68
2022-10-19T18:22:47.431Z,8.38
2022-10-19T18:24:00.340Z,7.85
2022-10-19T18:25:09.434Z,8.52
2022-10-19T18:26:27.466Z,8.27
2022-10-19T18:27:30.903Z,8.20
2022-10-19T18:28:38.877Z,6.85
2022-10-19T18:29:44.411Z,7.80
2022-10-19T18:32:36.339Z,7.70
2022-10-19T18:34:25.399Z,7.63
2022-10-19T18:35:29.239Z,7.75
2022-10-19T18:40:54.782Z,8.02
2022-10-19T18:42:38.382Z,8.00
2022-10-19T18:47:28.207Z,7.30
2022-10-19T18:48:47.233Z,7.35
2022-10-19T18:49:50.521Z,7.95
2022-10-19T18:50:57.734Z,7.75
2022-10-19T18:52:06.748Z,7.82
2022-10-19T18:53:13.891Z,7.90
2022-10-19T18:54:46.460Z,7.63
2022-10-19T18:56:47.224Z,7.82
2022-10-19T18:59:16.792Z,8.90
2022-10-19T19:00:19.385Z,8.77
2022-10-19T19:01:37.879Z,9.48
2022-10-19T19:02:46.915Z,14.15
2022-10-19T19:03:50.929Z,16.83
2022-10-19T19:04:57.468Z,20.52
2022-10-19T19:06:06.061Z,24.83
2022-10-19T19:07:10.319Z,14.57
2022-10-19T19:08:27.461Z,12.70
2022-10-19T19:09:45.211Z,13.52
2022-10-19T19:11:06.745Z,9.93
2022-10-19T19:12:20.426Z,10.93
2022-10-19T19:18:08.261Z,9.52
2022-10-19T19:19:26.343Z,9.45
2022-10-19T19:20:59.216Z,9.52
2022-10-19T19:22:19.885Z,9.25
2022-10-19T19:23:26.204Z,8.43
2022-10-19T19:24:36.495Z,7.97
2022-10-19T19:26:19.353Z,8.35
2022-10-19T19:27:31.779Z,8.38
2022-10-19T19:28:59.215Z,7.85
2022-10-19T19:30:14.221Z,7.88
2022-10-19T19:31:19.334Z,9.38
2022-10-19T19:32:33.759Z,8.98
2022-10-19T19:33:39.582Z,8.98
2022-10-19T19:35:19.845Z,8.82
2022-10-19T19:36:25.141Z,8.90
2022-10-19T19:37:37.309Z,11.15
2022-10-19T19:39:17.668Z,9.95
2022-10-19T19:40:39.107Z,9.75
2022-10-19T19:42:09.026Z,9.77
2022-10-19T19:43:21.389Z,10.32
2022-10-19T19:45:26.360Z,7.82
2022-10-19T19:46:29.398Z,8.57
2022-10-19T19:47:49.398Z,8.63
2022-10-19T19:48:58.640Z,9.60
2022-10-19T19:50:25.705Z,9.23
2022-10-19T19:51:29.246Z,9.10
2022-10-19T19:52:40.230Z,8.43
2022-10-19T19:53:57.989Z,8.98
2022-10-19T19:55:05.928Z,9.63
2022-10-19T19:56:16.769Z,8.95
2022-10-19T19:57:28.419Z,8.60
2022-10-19T19:59:05.093Z,9.63
2022-10-19T20:00:09.949Z,8.77
2022-10-19T20:01:35.273Z,9.70
2022-10-19T20:02:47.653Z,10.38
2022-10-19T20:03:50.338Z,10.45
2022-10-19T20:04:57.362Z,9.52
2022-10-19T20:06:04.621Z,9.43
2022-10-19T20:07:18.460Z,8.65
2022-10-19T20:09:07.147Z,8.40
2022-10-19T20:10:18.920Z,8.68
2022-10-19T20:13:13.181Z,10.48
2022-10-19T20:14:28.686Z,9.48
2022-10-19T20:15:48.959Z,10.00
2022-10-19T20:18:18.050Z,9.57
2022-10-19T20:19:50.257Z,9.35
2022-10-19T20:21:26.211Z,10.55
2022-10-19T20:22:28.479Z,9.70
2022-10-19T20:24:46.942Z,10.35
2022-10-19T20:26:08.168Z,9.27
2022-10-19T20:27:12.166Z,9.40
2022-10-19T20:28:17.980Z,10.10
2022-10-19T20:29:24.788Z,11.07
2022-10-19T20:30:27.194Z,9.05
2022-10-19T20:31:37.094Z,9.70
2022-10-19T20:32:39.482Z,9.65
2022-10-19T20:33:56.323Z,10.65
2022-10-19T20:35:00.151Z,9.43
2022-10-19T20:36:10.372Z,9.75
2022-10-19T20:37:55.445Z,9.80
2022-10-19T20:39:16.182Z,9.27
2022-10-19T20:40:19.869Z,10.30
2022-10-19T20:43:29.409Z,10.18
2022-10-19T20:45:19.025Z,10.20
2022-10-19T20:46:27.359Z,11.77
2022-10-19T20:47:30.104Z,10.85
2022-10-19T20:48:57.864Z,10.52
2022-10-19T20:50:00.217Z,11.43
2022-10-19T20:51:31.890Z,11.02
2022-10-19T20:52:40.625Z,9.55
2022-10-19T20:54:08.844Z,12.00
2022-10-19T20:55:27.475Z,10.85
2022-10-19T20:56:41.366Z,11.88
2022-10-19T20:57:48.148Z,9.63
2022-10-19T20:58:58.731Z,11.63
2022-10-19T21:00:01.222Z,10.15
2022-10-19T21:01:37.296Z,10.98